Waynesville-St. Robert Regional Forney field
KTBN : rendu visible

Aérodrome :











RETROUVEZ-NOUS SUR...

 
LOGIN :

S'inscrire | Disclaimer

   EN    FR    IT 

 









Légende :    VFR   VFR Marginal   IFR   IFR Intensif   IFR Très Intensif
Visi : 
Plafond : 
>= 8 km
>= 3000ft
5 à 8 km
1000 à 3000 ft
1500m à 5 km
500 à 1000 ft
800 à 1500m
200 à 500 ft
< 800m
< 200 ft
Symboles :   Orages  Brouillard  Fortes neiges  Fortes précipitations  Vent > 20 kt






- Altitude de l'aérodrome : 1159 ft
- Code IATA : TBN


KTBN - Waynesville-St. Robert Regional Forney field

DERNIER METAR :
  • 181656Z AUTO 28010G18KT 10SM OVC013 04/01 A3012 RMK AO2 SLP210 T00440013 $

METARs EXPIRÉS :
  • 181636Z AUTO 27010G17KT 10SM BKN014 OVC019 04/01 A3011 RMK AO2 CIG 013 RWY33 SLP207 $
  • 181556Z AUTO 29010G22KT 10SM OVC017 05/01 A3009 RMK AO2 CIG 014 RWY33 SLP200 T00480013 $
  • 181541Z AUTO 28011G17KT 10SM OVC014 05/02 A3009 RMK AO2 SLP200 $
  • 181456Z AUTO 28011G19KT 10SM OVC015 06/03 A3005 RMK AO2 SLP186 60000 T00640032 52058 $

TAF N/A



MET'MAP, la Météo Aéronautique d'un coup d'oeil ! - Copyright ORBIFLY Décembre 2007 - Disclaimer

ORBIFLY MET'MAP TEAM :

Programmation & Développement : Alexandra Zaïnal
Sur une idée originale de : Baudouin d'Aumeries
Assistance à la programmation : Marc-Olivier Méhu
Soutien technique & logistique : Manuel Goepfert

Contact : metmap@orbifly.com




SOURCES & CREDITS :

   NOAA       Earth
Advisory